createdAt,value
2022-11-30T00:01:46.473Z,75.55
2022-11-30T00:04:22.725Z,75.69
2022-11-30T00:06:50.994Z,75.74
2022-11-30T00:09:24.382Z,75.45
2022-11-30T00:12:06.899Z,75.43
2022-11-30T00:14:34.743Z,75.30
2022-11-30T00:17:02.832Z,75.49
2022-11-30T00:19:38.814Z,75.51
2022-11-30T00:22:07.269Z,75.32
2022-11-30T00:24:37.372Z,75.27
2022-11-30T00:27:07.810Z,75.47
2022-11-30T00:29:37.174Z,75.31
2022-11-30T00:32:09.302Z,75.42
2022-11-30T00:34:38.670Z,75.63
2022-11-30T00:37:06.768Z,75.29
2022-11-30T00:39:46.907Z,75.51
2022-11-30T00:42:20.255Z,75.05
2022-11-30T00:44:48.571Z,75.38
2022-11-30T00:47:17.694Z,75.45
2022-11-30T00:49:45.762Z,75.46
2022-11-30T00:52:14.083Z,75.54
2022-11-30T00:54:41.952Z,75.35
2022-11-30T00:57:10.000Z,75.41
2022-11-30T00:59:39.636Z,75.57
2022-11-30T01:02:07.743Z,75.63
2022-11-30T01:04:35.663Z,75.60
2022-11-30T01:07:03.666Z,75.42
2022-11-30T01:09:31.760Z,75.69
2022-11-30T01:11:59.623Z,75.71
2022-11-30T01:14:28.080Z,75.60
2022-11-30T01:16:57.382Z,75.77
2022-11-30T01:19:25.967Z,75.59
2022-11-30T01:21:54.492Z,75.53
2022-11-30T01:24:23.122Z,75.26
2022-11-30T01:26:53.250Z,75.79
2022-11-30T01:29:25.949Z,75.30
2022-11-30T01:31:54.932Z,75.58
2022-11-30T01:34:24.294Z,75.01
2022-11-30T01:36:52.316Z,75.17
2022-11-30T01:39:20.399Z,75.23
2022-11-30T01:41:50.046Z,75.27
2022-11-30T01:47:43.090Z,74.80
2022-11-30T01:50:28.374Z,74.77
2022-11-30T01:56:10.059Z,74.32
2022-11-30T01:58:38.789Z,74.92
2022-11-30T02:01:08.777Z,75.01
2022-11-30T02:03:46.907Z,74.83
2022-11-30T02:15:18.684Z,74.93
2022-11-30T02:37:18.275Z,75.14
2022-11-30T02:39:47.309Z,75.42
2022-11-30T02:42:18.483Z,75.58
2022-11-30T02:44:50.132Z,76.00
2022-11-30T02:47:25.126Z,76.06
2022-11-30T02:50:01.829Z,76.24
2022-11-30T02:57:20.027Z,75.82
2022-11-30T03:13:58.400Z,75.74
2022-11-30T03:26:12.897Z,75.97
2022-11-30T03:28:52.850Z,76.01
2022-11-30T05:58:37.586Z,76.06
2022-11-30T06:01:06.812Z,76.20
2022-11-30T06:03:37.119Z,75.92
2022-11-30T06:07:05.770Z,75.87
2022-11-30T06:10:03.803Z,76.12
2022-11-30T06:12:32.114Z,75.86
2022-11-30T06:15:01.557Z,76.18
2022-11-30T06:17:30.848Z,76.57
2022-11-30T06:19:59.968Z,76.01
2022-11-30T06:22:28.441Z,75.81
2022-11-30T06:25:12.609Z,76.06
2022-11-30T06:27:49.080Z,76.24
2022-11-30T06:45:32.703Z,76.13
2022-11-30T06:48:00.864Z,76.16
2022-11-30T06:50:29.395Z,76.37
2022-11-30T06:52:58.362Z,76.71
2022-11-30T07:11:11.358Z,76.66
2022-11-30T07:13:39.685Z,76.49
2022-11-30T07:16:10.983Z,77.03
2022-11-30T07:18:39.623Z,76.54
2022-11-30T07:31:35.830Z,76.28
2022-11-30T07:34:06.885Z,76.32
2022-11-30T07:36:54.871Z,76.13
2022-11-30T07:39:33.812Z,76.05
2022-11-30T07:42:01.908Z,76.19
2022-11-30T07:44:33.760Z,75.81
2022-11-30T07:47:03.030Z,75.81
2022-11-30T07:49:31.032Z,76.00
2022-11-30T07:51:59.002Z,75.50
2022-11-30T07:54:27.858Z,76.06
2022-11-30T07:56:55.957Z,75.97
2022-11-30T07:59:24.192Z,75.66
2022-11-30T08:01:52.520Z,75.37
2022-11-30T08:04:25.964Z,75.48
2022-11-30T08:06:54.572Z,75.66
2022-11-30T08:09:23.848Z,75.42
2022-11-30T08:11:54.675Z,75.74
2022-11-30T08:14:23.867Z,75.43
2022-11-30T08:23:05.199Z,75.24
2022-11-30T08:25:37.839Z,75.02
2022-11-30T08:28:07.552Z,74.94
2022-11-30T08:30:37.893Z,74.76
2022-11-30T08:33:05.799Z,74.71
2022-11-30T08:35:33.675Z,74.51
2022-11-30T08:38:03.006Z,74.92
2022-11-30T08:40:31.164Z,74.85
2022-11-30T08:42:59.806Z,74.72
2022-11-30T08:45:27.627Z,74.47
2022-11-30T08:47:55.842Z,74.69
2022-11-30T08:50:23.759Z,74.83
2022-11-30T08:52:51.722Z,74.73
2022-11-30T08:55:20.863Z,74.64
2022-11-30T08:57:48.831Z,74.84
2022-11-30T09:00:17.345Z,74.46
2022-11-30T09:02:45.349Z,74.07
2022-11-30T09:05:13.408Z,74.13
2022-11-30T09:07:41.413Z,74.34
2022-11-30T09:10:09.995Z,74.16
2022-11-30T09:12:40.549Z,74.46
2022-11-30T09:15:09.862Z,74.34
2022-11-30T09:17:38.077Z,74.09
2022-11-30T09:20:07.937Z,73.90
2022-11-30T09:22:35.960Z,73.63
2022-11-30T09:25:03.839Z,74.11
2022-11-30T09:27:33.268Z,73.72
2022-11-30T09:30:02.514Z,73.35
2022-11-30T09:32:33.263Z,73.16
2022-11-30T09:35:01.191Z,73.63
2022-11-30T09:37:29.004Z,73.69
2022-11-30T09:39:56.869Z,73.57
2022-11-30T09:42:39.819Z,73.28
2022-11-30T09:45:15.158Z,73.50
2022-11-30T09:48:21.900Z,73.29
2022-11-30T09:50:51.826Z,72.64
2022-11-30T09:53:29.389Z,73.36
2022-11-30T09:55:59.908Z,73.03
2022-11-30T09:58:37.597Z,72.76
2022-11-30T10:01:15.580Z,72.93
2022-11-30T10:03:43.606Z,72.87
2022-11-30T10:06:25.459Z,72.81
2022-11-30T10:09:15.477Z,73.05
2022-11-30T10:11:53.643Z,72.82
2022-11-30T10:14:39.321Z,72.99
2022-11-30T10:17:24.231Z,73.14
2022-11-30T10:20:15.352Z,72.87
2022-11-30T10:23:03.187Z,72.54
2022-11-30T10:25:42.608Z,72.97
2022-11-30T10:28:45.657Z,73.45
2022-11-30T10:31:11.847Z,73.22
2022-11-30T10:33:50.741Z,73.00
2022-11-30T10:36:28.928Z,73.18
2022-11-30T10:39:03.768Z,72.91
2022-11-30T10:41:35.206Z,72.93
2022-11-30T10:44:08.530Z,73.17
2022-11-30T10:46:40.939Z,73.21
2022-11-30T10:49:16.326Z,73.11
2022-11-30T10:52:26.031Z,72.79
2022-11-30T10:55:42.292Z,72.87
2022-11-30T10:58:41.581Z,72.87
2022-11-30T11:01:46.572Z,72.64
2022-11-30T11:04:31.936Z,72.43
2022-11-30T11:07:15.832Z,72.84
2022-11-30T11:09:52.456Z,72.34
2022-11-30T11:12:43.511Z,72.13
2022-11-30T11:15:33.569Z,72.75
2022-11-30T11:18:27.205Z,72.46
2022-11-30T11:21:19.300Z,72.50
2022-11-30T11:23:51.094Z,72.46
2022-11-30T11:26:22.386Z,72.45
2022-11-30T11:28:55.046Z,72.78
2022-11-30T11:31:39.312Z,72.91
2022-11-30T11:34:25.097Z,72.69
2022-11-30T11:37:08.439Z,72.36
2022-11-30T11:39:36.688Z,72.77
2022-11-30T11:42:20.617Z,72.66
2022-11-30T11:44:52.804Z,72.36
2022-11-30T11:47:27.736Z,72.57
2022-11-30T11:50:31.756Z,72.82
2022-11-30T11:53:26.415Z,73.14
2022-11-30T11:55:59.732Z,72.61
2022-11-30T11:58:39.189Z,72.79
2022-11-30T12:01:38.690Z,72.48
2022-11-30T12:04:34.032Z,72.92
2022-11-30T12:07:13.766Z,72.50
2022-11-30T12:09:58.441Z,72.91
2022-11-30T12:12:26.354Z,72.90
2022-11-30T12:14:56.132Z,72.71
2022-11-30T12:17:40.030Z,72.54
2022-11-30T12:20:19.961Z,72.58
2022-11-30T12:23:12.750Z,72.85
2022-11-30T12:25:50.911Z,72.90
2022-11-30T12:28:28.071Z,73.25
2022-11-30T12:31:11.420Z,72.85
2022-11-30T12:33:56.148Z,72.93
2022-11-30T12:36:36.702Z,72.83
2022-11-30T12:39:10.167Z,73.00
2022-11-30T12:41:49.690Z,72.83
2022-11-30T12:44:30.038Z,72.70
2022-11-30T12:47:06.755Z,72.41
2022-11-30T12:49:50.647Z,72.50
2022-11-30T12:52:34.800Z,72.20
2022-11-30T12:55:15.219Z,72.27
2022-11-30T12:57:49.950Z,72.52
2022-11-30T13:00:21.387Z,72.37
2022-11-30T13:03:13.867Z,72.60
2022-11-30T13:05:47.841Z,72.31
2022-11-30T13:08:22.838Z,71.97
2022-11-30T13:10:55.633Z,72.53
2022-11-30T13:13:27.201Z,72.53
2022-11-30T13:15:56.735Z,72.04
2022-11-30T13:18:26.123Z,72.42
2022-11-30T13:21:03.223Z,72.38
2022-11-30T13:23:38.126Z,72.47
2022-11-30T13:26:15.451Z,72.09
2022-11-30T13:28:57.796Z,72.62
2022-11-30T13:31:28.561Z,72.76
2022-11-30T13:34:00.724Z,72.86
2022-11-30T13:36:33.769Z,73.07
2022-11-30T13:39:22.253Z,72.93
2022-11-30T13:41:53.266Z,72.90
2022-11-30T13:44:32.455Z,73.03
2022-11-30T13:47:01.714Z,72.79
2022-11-30T13:49:31.242Z,72.69
2022-11-30T13:52:21.976Z,72.67
2022-11-30T13:54:50.684Z,72.79
2022-11-30T13:57:35.272Z,72.72
2022-11-30T14:00:43.272Z,72.61
2022-11-30T14:03:25.668Z,72.59
2022-11-30T14:05:54.399Z,72.21
2022-11-30T14:08:40.009Z,72.35
2022-11-30T14:11:36.843Z,72.57
2022-11-30T14:14:45.416Z,72.90
2022-11-30T14:17:19.017Z,72.30
2022-11-30T14:19:49.127Z,72.64
2022-11-30T14:22:17.534Z,72.52
2022-11-30T14:24:47.689Z,72.92
2022-11-30T14:27:19.385Z,72.68
2022-11-30T14:29:53.374Z,72.83
2022-11-30T14:32:35.220Z,72.88
2022-11-30T14:35:09.367Z,72.80
2022-11-30T14:37:44.124Z,72.41
2022-11-30T14:40:19.935Z,72.25
2022-11-30T14:42:51.709Z,72.46
2022-11-30T14:45:25.620Z,72.06
2022-11-30T14:48:06.079Z,72.26
2022-11-30T14:50:34.973Z,72.58
2022-11-30T14:53:15.781Z,72.51
2022-11-30T14:55:50.796Z,72.46
2022-11-30T14:58:24.154Z,72.65
2022-11-30T15:00:55.917Z,72.89
2022-11-30T15:03:37.453Z,72.73
2022-11-30T15:06:09.308Z,72.91
2022-11-30T15:08:43.116Z,72.74
2022-11-30T15:11:14.504Z,72.90
2022-11-30T15:13:44.846Z,72.84
2022-11-30T15:16:20.512Z,73.07
2022-11-30T15:18:51.134Z,73.08
2022-11-30T15:21:23.888Z,72.97
2022-11-30T15:24:02.672Z,73.21
2022-11-30T15:26:35.034Z,73.18
2022-11-30T15:29:06.733Z,73.20
2022-11-30T15:31:37.333Z,73.13
2022-11-30T15:34:08.269Z,72.71
2022-11-30T15:36:38.399Z,73.33
2022-11-30T15:39:08.775Z,73.04
2022-11-30T15:41:37.145Z,72.85
2022-11-30T15:44:05.081Z,73.27
2022-11-30T15:46:39.823Z,73.21
2022-11-30T15:49:21.213Z,73.30
2022-11-30T15:51:59.453Z,73.09
2022-11-30T15:54:46.032Z,73.29
2022-11-30T15:57:14.070Z,73.33
2022-11-30T15:59:42.065Z,73.32
2022-11-30T16:02:27.520Z,73.02
2022-11-30T16:05:24.789Z,73.45
2022-11-30T16:07:55.497Z,73.48
2022-11-30T16:10:25.766Z,73.38
2022-11-30T16:12:55.454Z,73.20
2022-11-30T16:15:25.577Z,73.47
2022-11-30T16:17:54.821Z,73.40
2022-11-30T16:20:24.785Z,73.57
2022-11-30T16:22:52.804Z,73.32
2022-11-30T16:25:24.299Z,73.69
2022-11-30T16:27:52.686Z,73.62
2022-11-30T16:30:22.848Z,73.67
2022-11-30T16:32:51.233Z,73.47
2022-11-30T16:35:22.890Z,73.77
2022-11-30T16:37:55.729Z,73.91
2022-11-30T16:40:24.182Z,73.98
2022-11-30T16:42:52.749Z,73.97
2022-11-30T16:45:22.324Z,73.86
2022-11-30T16:47:50.862Z,73.81
2022-11-30T16:50:19.563Z,73.66
2022-11-30T16:52:47.753Z,73.72
2022-11-30T16:55:18.953Z,73.79
2022-11-30T16:57:47.252Z,74.12
2022-11-30T17:00:18.857Z,73.91
2022-11-30T17:02:54.166Z,73.89
2022-11-30T17:05:22.260Z,73.72
2022-11-30T17:07:50.382Z,73.99
2022-11-30T17:10:20.672Z,73.85
2022-11-30T17:12:48.804Z,74.03
2022-11-30T17:15:18.902Z,73.86
2022-11-30T17:17:47.051Z,74.29
2022-11-30T17:20:17.236Z,73.87
2022-11-30T17:22:47.600Z,73.99
2022-11-30T17:25:17.199Z,73.73
2022-11-30T17:27:47.249Z,74.00
2022-11-30T17:30:20.611Z,74.27
2022-11-30T17:32:49.058Z,74.03
2022-11-30T17:35:17.616Z,74.20
2022-11-30T17:37:45.529Z,74.49
2022-11-30T17:40:15.371Z,74.51
2022-11-30T17:42:43.646Z,74.42
2022-11-30T17:45:13.479Z,74.50
2022-11-30T17:47:41.878Z,74.22
2022-11-30T17:50:11.702Z,74.12
2022-11-30T17:52:42.718Z,74.51
2022-11-30T17:55:16.937Z,74.54
2022-11-30T17:57:55.855Z,74.15
2022-11-30T18:00:32.774Z,74.16
2022-11-30T18:03:01.793Z,74.11
2022-11-30T18:05:31.024Z,74.27
2022-11-30T18:08:03.212Z,73.92
2022-11-30T18:10:35.650Z,73.57
2022-11-30T18:13:05.840Z,74.19
2022-11-30T18:15:37.430Z,73.95
2022-11-30T18:18:07.188Z,73.98
2022-11-30T18:20:35.325Z,73.98
2022-11-30T18:23:03.417Z,73.50
2022-11-30T18:25:33.688Z,73.88
2022-11-30T18:28:01.809Z,73.54
2022-11-30T18:30:29.855Z,73.90
2022-11-30T18:32:59.325Z,74.01
2022-11-30T18:35:27.157Z,73.81
2022-11-30T18:37:55.145Z,74.01
2022-11-30T18:40:23.452Z,73.97
2022-11-30T18:42:51.267Z,74.31
2022-11-30T18:45:19.107Z,74.35
2022-11-30T18:47:46.816Z,74.08
2022-11-30T18:50:16.295Z,74.05
2022-11-30T18:52:43.998Z,74.07
2022-11-30T18:55:11.896Z,73.63
2022-11-30T18:57:39.691Z,74.29
2022-11-30T19:00:09.024Z,73.77
2022-11-30T19:02:36.910Z,73.86
2022-11-30T19:05:10.393Z,73.87
2022-11-30T19:07:46.858Z,74.10
2022-11-30T19:10:18.276Z,73.67
2022-11-30T19:12:46.626Z,74.08
2022-11-30T19:15:14.559Z,74.18
2022-11-30T19:17:42.304Z,73.79
2022-11-30T19:20:11.182Z,74.04
2022-11-30T19:22:39.033Z,73.76
2022-11-30T19:25:09.874Z,73.78
2022-11-30T19:27:38.272Z,74.12
2022-11-30T19:30:08.905Z,74.05
2022-11-30T19:32:36.885Z,73.73
2022-11-30T19:35:05.402Z,73.57
2022-11-30T19:37:33.180Z,73.89
2022-11-30T19:40:00.993Z,73.91
2022-11-30T19:42:32.039Z,73.89
2022-11-30T19:44:59.953Z,73.69
2022-11-30T19:47:27.716Z,73.79
2022-11-30T19:49:55.589Z,74.07
2022-11-30T19:52:23.380Z,74.11
2022-11-30T19:54:51.325Z,73.79
2022-11-30T19:57:19.201Z,73.89
2022-11-30T19:59:48.478Z,74.29
2022-11-30T20:02:16.411Z,74.33
2022-11-30T20:04:44.225Z,74.09
2022-11-30T20:07:13.388Z,74.12
2022-11-30T20:09:41.386Z,74.24
2022-11-30T20:12:09.258Z,74.28
2022-11-30T20:14:37.092Z,74.05
2022-11-30T20:17:06.467Z,74.30
2022-11-30T20:19:34.886Z,74.27
2022-11-30T20:22:05.889Z,74.45
2022-11-30T20:24:34.547Z,74.07
2022-11-30T20:27:05.579Z,74.15
2022-11-30T20:29:35.062Z,73.89
2022-11-30T20:32:05.841Z,74.14
2022-11-30T20:34:43.462Z,74.53
2022-11-30T20:37:11.785Z,74.45
2022-11-30T20:39:45.803Z,74.37
2022-11-30T20:42:14.433Z,73.83
2022-11-30T20:44:42.520Z,73.92
2022-11-30T20:47:11.259Z,74.08
2022-11-30T20:49:40.888Z,73.77
2022-11-30T20:52:08.956Z,74.19
2022-11-30T20:54:37.046Z,74.36
2022-11-30T20:57:05.070Z,74.10
2022-11-30T20:59:33.404Z,73.94
2022-11-30T21:02:03.449Z,74.13
2022-11-30T21:04:31.555Z,74.23
2022-11-30T21:07:00.916Z,73.93
2022-11-30T21:09:28.970Z,74.15
2022-11-30T21:11:57.145Z,74.10
2022-11-30T21:14:25.898Z,73.78
2022-11-30T21:16:54.044Z,74.33
2022-11-30T21:19:22.558Z,74.12
2022-11-30T21:21:51.001Z,74.05
2022-11-30T21:24:20.428Z,74.27
2022-11-30T21:26:48.429Z,74.40
2022-11-30T21:29:19.032Z,74.04
2022-11-30T21:31:47.284Z,74.40
2022-11-30T21:34:15.581Z,74.01
2022-11-30T21:36:43.804Z,74.24
2022-11-30T21:39:17.443Z,74.50
2022-11-30T21:41:49.522Z,74.41
2022-11-30T21:44:18.398Z,74.10
2022-11-30T21:46:49.420Z,74.28
2022-11-30T21:49:17.529Z,74.37
2022-11-30T21:51:45.818Z,74.18
2022-11-30T21:54:14.585Z,74.36
2022-11-30T21:56:44.689Z,73.98
2022-11-30T21:59:15.632Z,74.20
2022-11-30T22:01:45.588Z,74.22
2022-11-30T22:04:15.745Z,74.18
2022-11-30T22:06:45.320Z,74.12
2022-11-30T22:09:18.015Z,74.13
2022-11-30T22:11:46.992Z,74.04
2022-11-30T22:14:17.747Z,74.20
2022-11-30T22:16:46.081Z,74.29
2022-11-30T22:19:14.485Z,74.19
2022-11-30T22:21:48.292Z,74.07
2022-11-30T22:24:17.869Z,74.05
2022-11-30T22:26:46.511Z,74.20
2022-11-30T22:29:17.748Z,74.35
2022-11-30T22:31:47.798Z,74.18
2022-11-30T22:34:16.049Z,74.11
2022-11-30T22:36:45.735Z,73.97
2022-11-30T22:39:15.879Z,74.03
2022-11-30T22:41:45.419Z,73.90
2022-11-30T22:44:14.148Z,73.93
2022-11-30T22:46:44.578Z,73.82
2022-11-30T22:49:20.205Z,73.98
2022-11-30T22:51:49.648Z,73.95
2022-11-30T22:54:17.914Z,73.61
2022-11-30T22:56:46.710Z,74.11
2022-11-30T22:59:16.407Z,73.74
2022-11-30T23:01:47.666Z,73.87
2022-11-30T23:04:17.827Z,73.84
2022-11-30T23:06:47.528Z,74.05
2022-11-30T23:09:17.130Z,73.99
2022-11-30T23:11:45.784Z,74.14
2022-11-30T23:14:16.195Z,73.90
2022-11-30T23:16:45.949Z,74.35
2022-11-30T23:19:14.798Z,74.35
2022-11-30T23:21:47.627Z,74.61
2022-11-30T23:24:17.917Z,74.54
2022-11-30T23:26:46.474Z,73.92
2022-11-30T23:29:16.282Z,74.08
2022-11-30T23:31:46.436Z,74.10
2022-11-30T23:34:16.326Z,74.30
2022-11-30T23:36:44.362Z,74.25
2022-11-30T23:39:15.000Z,73.78
2022-11-30T23:41:43.991Z,73.66
2022-11-30T23:44:12.332Z,74.33
2022-11-30T23:46:41.102Z,74.28
2022-11-30T23:49:10.448Z,74.29
2022-11-30T23:51:38.439Z,73.92
2022-11-30T23:54:06.827Z,74.28
2022-11-30T23:56:35.079Z,74.10
2022-11-30T23:59:02.963Z,74.24
